createdAt,value
2022-12-13T00:00:56.520Z,30.63
2022-12-13T00:03:23.020Z,30.73
2022-12-13T00:05:49.488Z,33.47
2022-12-13T00:08:16.097Z,28.70
2022-12-13T00:10:42.550Z,27.70
2022-12-13T00:13:09.013Z,28.57
2022-12-13T00:15:35.829Z,23.57
2022-12-13T00:18:02.368Z,33.93
2022-12-13T00:20:28.916Z,27.13
2022-12-13T00:22:55.407Z,29.80
2022-12-13T00:25:22.087Z,24.63
2022-12-13T00:27:48.831Z,23.80
2022-12-13T00:30:15.466Z,24.73
2022-12-13T00:32:43.030Z,24.97
2022-12-13T00:35:09.864Z,22.00
2022-12-13T00:37:36.330Z,22.57
2022-12-13T00:40:03.051Z,19.70
2022-12-13T00:42:29.548Z,25.00
2022-12-13T00:44:56.074Z,27.90
2022-12-13T00:47:23.518Z,26.97
2022-12-13T00:49:50.068Z,25.93
2022-12-13T00:52:16.655Z,24.90
2022-12-13T00:54:43.197Z,19.63
2022-12-13T00:57:09.768Z,24.53
2022-12-13T00:59:36.315Z,21.70
2022-12-13T01:02:02.860Z,17.70
2022-12-13T01:04:29.420Z,18.57
2022-12-13T01:06:55.994Z,24.27
2022-12-13T01:09:27.265Z,22.67
2022-12-13T01:11:57.936Z,22.70
2022-12-13T01:14:25.098Z,17.33
2022-12-13T01:16:51.613Z,22.20
2022-12-13T01:19:18.243Z,20.00
2022-12-13T01:21:44.794Z,19.83
2022-12-13T01:24:11.240Z,21.67
2022-12-13T01:26:38.436Z,18.63
2022-12-13T01:29:05.886Z,20.90
2022-12-13T01:31:33.878Z,18.93
2022-12-13T01:34:00.873Z,21.97
2022-12-13T01:36:28.476Z,19.87
2022-12-13T01:38:58.002Z,24.00
2022-12-13T01:41:27.040Z,23.10
2022-12-13T01:43:56.472Z,19.80
2022-12-13T01:46:23.467Z,23.70
2022-12-13T01:48:55.654Z,21.93
2022-12-13T01:51:29.553Z,28.67
2022-12-13T01:53:58.545Z,20.73
2022-12-13T01:56:30.363Z,23.23
2022-12-13T01:58:57.836Z,26.60
2022-12-13T02:01:24.803Z,22.27
2022-12-13T02:03:51.331Z,25.03
2022-12-13T02:06:42.557Z,25.77
2022-12-13T02:09:09.288Z,21.60
2022-12-13T02:11:38.298Z,23.93
2022-12-13T02:14:05.679Z,28.17
2022-12-13T02:17:01.501Z,26.57
2022-12-13T02:19:40.234Z,20.10
2022-12-13T02:22:33.047Z,20.67
2022-12-13T02:25:14.709Z,22.93
2022-12-13T02:28:30.254Z,21.37
2022-12-13T02:31:04.321Z,21.80
2022-12-13T02:34:14.188Z,23.93
2022-12-13T02:37:01.550Z,22.70
2022-12-13T02:39:31.503Z,22.77
2022-12-13T02:42:21.820Z,23.70
2022-12-13T02:44:54.003Z,23.60
2022-12-13T02:47:22.910Z,20.93
2022-12-13T02:49:55.690Z,21.83
2022-12-13T02:52:25.358Z,20.53
2022-12-13T02:54:55.097Z,21.80
2022-12-13T02:57:41.806Z,25.10
2022-12-13T03:00:09.068Z,23.27
2022-12-13T03:03:13.113Z,24.70
2022-12-13T03:06:18.519Z,24.70
2022-12-13T03:09:14.754Z,25.50
2022-12-13T03:12:33.955Z,23.03
2022-12-13T03:15:10.871Z,24.63
2022-12-13T03:17:43.409Z,24.10
2022-12-13T03:20:22.228Z,22.77
2022-12-13T03:22:50.363Z,19.73
2022-12-13T03:25:31.318Z,22.73
2022-12-13T03:28:00.966Z,23.00
2022-12-13T03:30:29.158Z,18.27
2022-12-13T03:32:55.682Z,22.77
2022-12-13T03:35:22.896Z,19.90
2022-12-13T03:37:49.705Z,22.17
2022-12-13T03:40:16.574Z,31.90
2022-12-13T03:42:43.109Z,24.60
2022-12-13T03:45:09.785Z,26.17
2022-12-13T03:47:36.242Z,29.30
2022-12-13T03:50:25.842Z,25.17
2022-12-13T03:52:51.347Z,28.73
2022-12-13T03:55:18.618Z,23.83
2022-12-13T03:57:45.049Z,28.40
2022-12-13T04:00:12.098Z,27.27
2022-12-13T04:02:38.793Z,26.93
2022-12-13T04:05:06.008Z,31.90
2022-12-13T04:07:34.531Z,34.47
2022-12-13T04:10:01.607Z,29.20
2022-12-13T04:12:48.556Z,33.60
2022-12-13T04:15:15.981Z,33.77
2022-12-13T04:17:42.691Z,28.83
2022-12-13T04:20:09.671Z,30.10
2022-12-13T04:22:36.310Z,34.70
2022-12-13T04:25:03.752Z,36.73
2022-12-13T04:27:30.220Z,31.70
2022-12-13T04:29:56.785Z,31.53
2022-12-13T04:32:26.597Z,32.43
2022-12-13T04:35:01.079Z,34.23
2022-12-13T04:37:28.489Z,31.77
2022-12-13T04:40:00.573Z,33.50
2022-12-13T04:42:27.592Z,30.47
2022-12-13T04:44:54.368Z,31.10
2022-12-13T04:47:20.822Z,30.90
2022-12-13T04:49:47.922Z,36.33
2022-12-13T04:52:22.609Z,33.27
2022-12-13T04:54:55.691Z,36.57
2022-12-13T04:57:22.886Z,35.60
2022-12-13T04:59:49.384Z,31.63
2022-12-13T05:02:23.458Z,34.70
2022-12-13T05:04:53.557Z,31.13
2022-12-13T05:07:20.684Z,32.30
2022-12-13T05:09:47.245Z,33.00
2022-12-13T05:12:22.284Z,37.70
2022-12-13T05:14:50.228Z,29.20
2022-12-13T05:17:16.804Z,30.53
2022-12-13T05:19:43.252Z,31.53
2022-12-13T05:22:19.687Z,32.90
2022-12-13T05:24:47.991Z,31.63
2022-12-13T05:27:24.508Z,30.17
2022-12-13T05:29:57.680Z,34.30
2022-12-13T05:32:43.507Z,30.60
2022-12-13T05:35:22.506Z,27.97
2022-12-13T05:37:53.815Z,28.70
2022-12-13T05:40:22.187Z,36.33
2022-12-13T05:42:48.605Z,31.50
2022-12-13T05:45:16.553Z,29.73
2022-12-13T05:47:43.429Z,32.13
2022-12-13T05:50:10.751Z,34.53
2022-12-13T05:52:37.174Z,30.83
2022-12-13T05:55:04.028Z,28.97
2022-12-13T05:57:30.663Z,26.27
2022-12-13T05:59:57.081Z,29.60
2022-12-13T06:02:23.819Z,25.73
2022-12-13T06:04:50.388Z,28.77
2022-12-13T06:07:16.894Z,28.77
2022-12-13T06:09:43.365Z,24.50
2022-12-13T06:12:31.053Z,25.77
2022-12-13T06:15:21.767Z,26.17
2022-12-13T06:17:43.296Z,30.60
2022-12-13T06:20:24.322Z,28.43
2022-12-13T06:22:52.309Z,23.83
2022-12-13T06:25:30.582Z,25.63
2022-12-13T06:27:58.104Z,26.40
2022-12-13T06:30:27.519Z,23.93
2022-12-13T06:32:54.057Z,24.97
2022-12-13T06:35:29.903Z,24.93
2022-12-13T06:38:01.477Z,26.20
2022-12-13T06:40:29.213Z,25.47
2022-12-13T06:42:55.747Z,24.57
2022-12-13T06:45:22.501Z,21.33
2022-12-13T06:47:48.971Z,22.93
2022-12-13T06:50:15.517Z,17.40
2022-12-13T06:52:41.974Z,20.70
2022-12-13T06:55:08.938Z,20.87
2022-12-13T06:57:36.129Z,19.77
2022-12-13T07:00:04.992Z,25.67
2022-12-13T07:02:32.603Z,20.43
2022-12-13T07:04:59.176Z,20.10
2022-12-13T07:07:26.157Z,21.90
2022-12-13T07:09:53.056Z,22.00
2022-12-13T07:12:21.066Z,17.47
2022-12-13T07:14:48.597Z,19.23
2022-12-13T07:17:33.256Z,22.67
2022-12-13T07:20:10.442Z,21.30
2022-12-13T07:22:43.280Z,23.20
2022-12-13T07:25:27.742Z,22.30
2022-12-13T07:28:03.332Z,21.87
2022-12-13T07:30:40.760Z,18.77
2022-12-13T07:33:09.240Z,18.20
2022-12-13T07:35:37.224Z,18.60
2022-12-13T07:38:04.387Z,17.77
2022-12-13T07:40:30.832Z,17.97
2022-12-13T07:42:57.426Z,16.27
2022-12-13T07:45:24.265Z,23.77
2022-12-13T07:47:51.106Z,19.87
2022-12-13T07:50:25.143Z,21.93
2022-12-13T07:52:52.866Z,20.93
2022-12-13T07:55:23.300Z,18.03
2022-12-13T07:58:05.082Z,19.03
2022-12-13T08:00:32.220Z,21.47
2022-12-13T08:03:00.823Z,18.27
2022-12-13T08:05:28.546Z,27.97
2022-12-13T08:07:55.244Z,19.43
2022-12-13T08:10:22.091Z,20.90
2022-12-13T08:12:50.047Z,20.43
2022-12-13T08:15:17.466Z,22.60
2022-12-13T08:17:43.970Z,24.13
2022-12-13T08:20:10.557Z,23.40
2022-12-13T08:22:37.224Z,22.90
2022-12-13T08:25:04.380Z,20.20
2022-12-13T08:27:30.923Z,20.90
2022-12-13T08:29:57.460Z,23.40
2022-12-13T08:32:24.072Z,22.20
2022-12-13T08:34:50.618Z,22.00
2022-12-13T08:37:17.432Z,22.30
2022-12-13T08:39:47.180Z,17.83
2022-12-13T08:42:18.814Z,22.20
2022-12-13T08:44:47.758Z,19.00
2022-12-13T08:47:23.267Z,18.50
2022-12-13T08:50:02.431Z,26.73
2022-12-13T08:52:31.456Z,21.77
2022-12-13T08:54:58.334Z,22.20
2022-12-13T08:57:24.960Z,20.17
2022-12-13T08:59:51.599Z,19.13
2022-12-13T09:02:18.635Z,22.70
2022-12-13T09:04:45.735Z,21.73
2022-12-13T09:07:12.702Z,20.30
2022-12-13T09:09:39.289Z,17.37
2022-12-13T09:12:10.676Z,19.80
2022-12-13T09:14:38.422Z,17.53
2022-12-13T09:17:24.177Z,18.23
2022-12-13T09:19:57.943Z,18.97
2022-12-13T09:22:33.949Z,21.53
2022-12-13T09:25:02.330Z,18.43
2022-12-13T09:27:30.394Z,20.13
2022-12-13T09:29:57.518Z,19.73
2022-12-13T09:32:25.026Z,19.30
2022-12-13T09:34:51.828Z,17.47
2022-12-13T09:37:23.102Z,17.47
2022-12-13T09:39:55.133Z,18.87
2022-12-13T09:42:30.704Z,13.97
2022-12-13T09:45:05.460Z,20.20
2022-12-13T09:47:47.186Z,20.33
2022-12-13T09:50:26.498Z,18.27
2022-12-13T09:52:53.173Z,18.43
2022-12-13T09:55:31.335Z,19.27
2022-12-13T09:57:59.162Z,20.17
2022-12-13T10:00:29.014Z,18.67
2022-12-13T10:02:57.560Z,19.63
2022-12-13T10:05:38.776Z,18.00
2022-12-13T10:08:14.943Z,20.37
2022-12-13T10:10:42.597Z,19.93
2022-12-13T10:13:20.001Z,19.03
2022-12-13T10:15:50.539Z,22.30
2022-12-13T10:18:24.405Z,22.40
2022-12-13T10:20:51.459Z,21.17
2022-12-13T10:26:09.805Z,23.60
2022-12-13T10:28:51.418Z,24.97
2022-12-13T10:31:19.885Z,24.13
2022-12-13T10:33:54.689Z,22.23
2022-12-13T10:36:38.520Z,24.37
2022-12-13T10:39:05.188Z,27.83
2022-12-13T10:41:36.148Z,24.07
2022-12-13T10:44:11.551Z,27.90
2022-12-13T10:46:43.649Z,28.53
2022-12-13T10:49:24.037Z,21.50
2022-12-13T10:51:53.455Z,25.20
2022-12-13T10:54:29.171Z,24.47
2022-12-13T10:57:06.044Z,20.90
2022-12-13T10:59:36.614Z,21.30
2022-12-13T11:02:37.111Z,27.80
2022-12-13T11:05:24.551Z,23.23
2022-12-13T11:07:51.709Z,22.30
2022-12-13T11:10:27.377Z,29.43
2022-12-13T11:13:02.387Z,23.53
2022-12-13T11:15:31.047Z,28.57
2022-12-13T11:18:03.047Z,25.07
2022-12-13T11:20:39.199Z,20.63
2022-12-13T11:23:21.181Z,26.00
2022-12-13T11:25:48.142Z,25.13
2022-12-13T11:28:32.793Z,25.83
2022-12-13T11:31:08.648Z,27.13
2022-12-13T11:33:52.404Z,26.07
2022-12-13T11:36:37.866Z,28.27
2022-12-13T11:39:16.982Z,30.00
2022-12-13T11:41:56.590Z,27.47
2022-12-13T11:44:47.825Z,25.87
2022-12-13T11:47:21.022Z,27.00
2022-12-13T11:49:48.307Z,25.67
2022-12-13T11:52:25.799Z,25.53
2022-12-13T11:54:59.198Z,28.57
2022-12-13T11:57:31.453Z,28.97
2022-12-13T12:00:04.897Z,36.70
2022-12-13T12:02:43.088Z,27.67
2022-12-13T12:05:19.464Z,31.10
2022-12-13T12:08:20.987Z,28.60
2022-12-13T12:10:45.679Z,28.90
2022-12-13T12:13:26.792Z,29.77
2022-12-13T12:16:10.843Z,30.17
2022-12-13T12:18:37.657Z,26.03
2022-12-13T12:22:12.232Z,23.07
2022-12-13T12:24:38.267Z,24.57
2022-12-13T12:27:37.825Z,25.17
2022-12-13T12:30:36.523Z,24.87
2022-12-13T12:33:07.684Z,22.67
2022-12-13T12:35:46.820Z,27.00
2022-12-13T12:38:48.863Z,23.83
2022-12-13T12:41:44.945Z,25.67
2022-12-13T12:44:20.829Z,22.83
2022-12-13T12:47:32.599Z,26.03
2022-12-13T12:50:02.587Z,22.67
2022-12-13T12:52:55.579Z,23.70
2022-12-13T12:55:41.115Z,20.47
2022-12-13T12:58:24.531Z,24.63
2022-12-13T13:01:12.031Z,30.50
2022-12-13T13:03:41.647Z,25.80
2022-12-13T13:06:27.327Z,25.83
2022-12-13T13:08:59.363Z,28.53
2022-12-13T13:11:29.193Z,28.60
2022-12-13T13:14:02.199Z,27.17
2022-12-13T13:16:37.394Z,30.30
2022-12-13T13:19:25.972Z,25.73
2022-12-13T13:21:55.369Z,31.87
2022-12-13T13:24:30.150Z,30.47
2022-12-13T13:26:58.801Z,27.97
2022-12-13T13:29:27.767Z,28.30
2022-12-13T13:32:11.078Z,25.90
2022-12-13T13:34:42.699Z,30.13
2022-12-13T13:37:23.201Z,30.77
2022-12-13T13:39:52.850Z,31.73
2022-12-13T13:42:21.697Z,32.93
2022-12-13T13:44:48.298Z,25.57
2022-12-13T13:47:16.139Z,26.63
2022-12-13T13:50:08.866Z,23.80
2022-12-13T13:52:44.502Z,21.70
2022-12-13T13:55:22.786Z,27.43
2022-12-13T13:58:35.210Z,28.37
2022-12-13T14:01:23.099Z,26.67
2022-12-13T14:04:10.285Z,28.97
2022-12-13T14:06:53.032Z,34.93
2022-12-13T14:09:45.930Z,31.70
2022-12-13T14:12:40.524Z,32.53
2022-12-13T14:15:37.752Z,34.33
2022-12-13T14:18:41.814Z,36.93
2022-12-13T14:21:42.680Z,32.40
2022-12-13T14:24:16.229Z,36.00
2022-12-13T14:26:58.525Z,36.30
2022-12-13T14:29:31.890Z,41.00
2022-12-13T14:31:59.018Z,40.33
2022-12-13T14:34:28.160Z,38.80
2022-12-13T14:37:00.683Z,42.23
2022-12-13T14:39:36.860Z,36.50
2022-12-13T14:42:21.700Z,43.20
2022-12-13T14:44:48.184Z,40.40
2022-12-13T14:47:14.819Z,38.67
2022-12-13T14:49:48.951Z,41.10
2022-12-13T14:52:27.766Z,39.97
2022-12-13T14:55:04.521Z,39.87
2022-12-13T14:57:32.365Z,41.77
2022-12-13T15:00:00.340Z,41.27
2022-12-13T15:02:32.263Z,34.77
2022-12-13T15:05:04.161Z,38.93
2022-12-13T15:07:41.322Z,40.87
2022-12-13T15:10:37.741Z,40.23
2022-12-13T15:13:04.866Z,42.23
2022-12-13T15:15:35.178Z,44.67
2022-12-13T15:18:10.632Z,45.30
2022-12-13T15:20:41.572Z,49.97
2022-12-13T15:23:37.121Z,51.63
2022-12-13T15:26:12.830Z,66.67
2022-12-13T15:28:56.529Z,58.40
2022-12-13T15:31:23.530Z,67.13
2022-12-13T15:33:51.339Z,63.03
2022-12-13T15:36:23.979Z,58.50
2022-12-13T15:38:56.381Z,66.77
2022-12-13T15:41:27.181Z,85.37
2022-12-13T15:43:56.278Z,78.73
2022-12-13T15:46:27.042Z,83.73
2022-12-13T15:48:55.298Z,99.40
2022-12-13T15:51:29.266Z,88.30
2022-12-13T15:54:09.336Z,70.43
2022-12-13T15:56:55.827Z,59.40
2022-12-13T15:59:32.372Z,57.93
2022-12-13T16:01:59.359Z,51.33
2022-12-13T16:04:28.592Z,55.83
2022-12-13T16:06:58.523Z,49.73
2022-12-13T16:09:27.568Z,50.50
2022-12-13T16:11:59.833Z,48.87
2022-12-13T16:14:32.315Z,54.67
2022-12-13T16:17:24.618Z,59.67
2022-12-13T16:19:53.041Z,53.90
2022-12-13T16:22:21.904Z,51.73
2022-12-13T16:24:48.884Z,49.30
2022-12-13T16:27:15.929Z,50.67
2022-12-13T16:29:42.793Z,50.83
2022-12-13T16:32:10.711Z,51.70
2022-12-13T16:34:37.989Z,50.57
2022-12-13T16:37:09.025Z,49.87
2022-12-13T16:39:51.775Z,42.40
2022-12-13T16:42:18.903Z,45.87
2022-12-13T16:44:47.234Z,47.33
2022-12-13T16:47:24.414Z,43.17
2022-12-13T16:49:56.871Z,45.33
2022-12-13T16:52:23.539Z,50.77
2022-12-13T16:54:51.253Z,49.60
2022-12-13T16:57:17.995Z,47.73
2022-12-13T16:59:44.731Z,48.27
2022-12-13T17:02:17.023Z,49.50
2022-12-13T17:04:43.719Z,49.00
2022-12-13T17:07:10.382Z,49.23
2022-12-13T17:09:37.022Z,51.57
2022-12-13T17:12:03.930Z,46.17
2022-12-13T17:14:30.398Z,48.97
2022-12-13T17:16:57.030Z,47.43
2022-12-13T17:19:24.098Z,49.97
2022-12-13T17:21:50.996Z,47.33
2022-12-13T17:24:17.457Z,45.87
2022-12-13T17:26:54.016Z,50.83
2022-12-13T17:29:22.534Z,57.13
2022-12-13T17:31:49.292Z,57.27
2022-12-13T17:34:15.869Z,52.47
2022-12-13T17:36:43.577Z,56.30
2022-12-13T17:39:12.392Z,49.83
2022-12-13T17:41:39.106Z,55.40
2022-12-13T17:44:06.250Z,60.00
2022-12-13T17:46:37.640Z,67.53
2022-12-13T17:49:04.640Z,66.37
2022-12-13T17:51:31.140Z,64.33
2022-12-13T17:53:57.679Z,56.47
2022-12-13T17:56:24.241Z,62.80
2022-12-13T17:58:50.800Z,60.30
2022-12-13T18:01:20.104Z,58.53
2022-12-13T18:03:49.096Z,63.50
2022-12-13T18:06:15.681Z,67.37
2022-12-13T18:08:44.468Z,76.00
2022-12-13T18:11:32.385Z,86.50
2022-12-13T18:13:59.448Z,73.73
2022-12-13T18:16:35.492Z,71.40
2022-12-13T18:19:04.075Z,76.87
2022-12-13T18:21:30.585Z,67.20
2022-12-13T18:23:59.232Z,61.33
2022-12-13T18:26:25.784Z,60.03
2022-12-13T18:28:52.561Z,58.33
2022-12-13T18:31:23.208Z,66.57
2022-12-13T18:33:51.346Z,65.10
2022-12-13T18:36:19.343Z,68.43
2022-12-13T18:38:46.644Z,59.40
2022-12-13T18:41:15.922Z,65.87
2022-12-13T18:43:43.851Z,62.67
2022-12-13T18:46:11.575Z,73.13
2022-12-13T18:48:38.441Z,69.60
2022-12-13T18:51:07.689Z,73.67
2022-12-13T18:53:38.947Z,73.70
2022-12-13T18:56:17.725Z,77.57
2022-12-13T18:58:46.405Z,91.87
2022-12-13T19:01:13.597Z,73.17
2022-12-13T19:03:40.489Z,72.00
2022-12-13T19:06:07.725Z,76.53
2022-12-13T19:08:36.639Z,72.67
2022-12-13T19:11:03.691Z,70.93
2022-12-13T19:13:31.795Z,71.90
2022-12-13T19:16:03.784Z,77.33
2022-12-13T19:18:30.414Z,78.23
2022-12-13T19:20:57.092Z,69.77
2022-12-13T19:23:23.982Z,78.20
2022-12-13T19:25:51.418Z,76.07
2022-12-13T19:28:18.303Z,90.33
2022-12-13T19:30:47.764Z,86.83
2022-12-13T19:33:15.243Z,76.67
2022-12-13T19:35:43.316Z,87.60
2022-12-13T19:38:10.101Z,84.23
2022-12-13T19:40:42.615Z,83.07
2022-12-13T19:43:11.509Z,83.93
2022-12-13T19:45:38.492Z,90.13
2022-12-13T19:48:05.414Z,78.83
2022-12-13T19:50:32.302Z,78.63
2022-12-13T19:52:59.292Z,80.90
2022-12-13T19:55:26.193Z,86.90
2022-12-13T19:57:53.209Z,87.77
2022-12-13T20:00:19.911Z,82.07
2022-12-13T20:02:46.588Z,89.87
2022-12-13T20:05:13.214Z,82.63
2022-12-13T20:07:41.006Z,81.13
2022-12-13T20:10:11.578Z,85.50
2022-12-13T20:12:40.890Z,82.90
2022-12-13T20:15:09.383Z,84.80
2022-12-13T20:17:39.596Z,79.63
2022-12-13T20:20:06.550Z,87.13
2022-12-13T20:22:35.838Z,83.87
2022-12-13T20:25:02.818Z,88.23
2022-12-13T20:27:29.450Z,96.60
2022-12-13T20:29:56.496Z,84.00
2022-12-13T20:32:23.509Z,94.23
2022-12-13T20:34:54.526Z,89.33
2022-12-13T20:37:22.560Z,93.17
2022-12-13T20:39:49.400Z,92.50
2022-12-13T20:42:16.168Z,97.03
2022-12-13T20:44:43.155Z,87.03
2022-12-13T20:47:12.614Z,90.43
2022-12-13T20:49:40.141Z,97.70
2022-12-13T20:52:06.729Z,91.83
2022-12-13T20:54:35.123Z,109.60
2022-12-13T20:57:01.705Z,111.70
2022-12-13T20:59:32.312Z,103.00
2022-12-13T21:01:58.868Z,109.03
2022-12-13T21:04:26.006Z,101.73
2022-12-13T21:06:52.595Z,114.73
2022-12-13T21:09:19.165Z,103.43
2022-12-13T21:11:47.741Z,96.83
2022-12-13T21:14:22.987Z,113.97
2022-12-13T21:16:53.803Z,116.90
2022-12-13T21:19:23.575Z,115.63
2022-12-13T21:21:50.969Z,131.57
2022-12-13T21:24:19.167Z,114.47
2022-12-13T21:26:46.060Z,118.53
2022-12-13T21:29:13.991Z,114.30
2022-12-13T21:31:43.247Z,118.83
2022-12-13T21:34:11.327Z,117.50
2022-12-13T21:36:40.543Z,106.77
2022-12-13T21:39:12.933Z,112.17
2022-12-13T21:41:40.270Z,109.87
2022-12-13T21:44:07.015Z,115.73
2022-12-13T21:47:10.188Z,120.50
2022-12-13T21:49:21.303Z,109.67
2022-12-13T21:51:48.766Z,113.33
2022-12-13T21:54:15.792Z,105.33
2022-12-13T21:57:00.843Z,106.50
2022-12-13T21:59:28.755Z,119.70
2022-12-13T22:02:13.308Z,105.27
2022-12-13T22:04:41.305Z,108.23
2022-12-13T22:07:08.759Z,115.23
2022-12-13T22:09:36.296Z,109.77
2022-12-13T22:12:10.296Z,118.83
2022-12-13T22:14:37.346Z,115.53
2022-12-13T22:17:04.290Z,112.47
2022-12-13T22:19:30.853Z,111.40
2022-12-13T22:21:57.473Z,115.40
2022-12-13T22:24:24.092Z,112.80
2022-12-13T22:26:50.684Z,107.80
2022-12-13T22:29:17.273Z,99.43
2022-12-13T22:31:43.945Z,99.60
2022-12-13T22:34:15.626Z,101.37
2022-12-13T22:36:42.219Z,109.67
2022-12-13T22:39:16.478Z,105.03
2022-12-13T22:41:43.076Z,93.87
2022-12-13T22:44:11.863Z,103.90
2022-12-13T22:46:38.439Z,105.10
2022-12-13T22:49:05.663Z,107.97
2022-12-13T22:51:32.414Z,100.90
2022-12-13T22:53:59.143Z,88.57
2022-12-13T22:56:25.780Z,94.70
2022-12-13T22:58:54.323Z,93.27
2022-12-13T23:01:26.299Z,96.47
2022-12-13T23:03:53.223Z,92.23
2022-12-13T23:06:22.496Z,104.47
2022-12-13T23:08:54.351Z,91.83
2022-12-13T23:11:40.324Z,97.23
2022-12-13T23:14:09.323Z,94.83
2022-12-13T23:16:36.473Z,96.30
2022-12-13T23:19:32.222Z,100.73
2022-12-13T23:21:50.864Z,108.63
2022-12-13T23:24:17.497Z,99.83
2022-12-13T23:26:44.091Z,100.37
2022-12-13T23:29:10.850Z,105.63
2022-12-13T23:31:42.112Z,118.67
2022-12-13T23:34:11.764Z,104.67
2022-12-13T23:36:38.239Z,100.17
2022-12-13T23:39:06.456Z,101.87
2022-12-13T23:41:34.211Z,108.87
2022-12-13T23:44:01.250Z,98.43
2022-12-13T23:46:33.594Z,101.13
2022-12-13T23:49:00.881Z,92.97
2022-12-13T23:51:28.304Z,98.13
2022-12-13T23:53:54.750Z,108.97
2022-12-13T23:56:21.970Z,104.43
2022-12-13T23:58:48.658Z,97.63
